sensor_id;sensor_type;location;lat;lon;timestamp;P1;durP1;ratioP1;P2;durP2;ratioP2
19024;SDS011;9645;51.448;6.260;2023-04-01T00:01:58;4.07;;;1.40;;
19024;SDS011;9645;51.448;6.260;2023-04-01T00:04:25;3.88;;;1.42;;
19024;SDS011;9645;51.448;6.260;2023-04-01T00:06:52;9.10;;;1.30;;
19024;SDS011;9645;51.448;6.260;2023-04-01T00:09:20;4.53;;;1.35;;
19024;SDS011;9645;51.448;6.260;2023-04-01T00:11:47;3.13;;;1.13;;
19024;SDS011;9645;51.448;6.260;2023-04-01T00:14:14;4.40;;;1.55;;
19024;SDS011;9645;51.448;6.260;2023-04-01T00:16:42;10.73;;;1.17;;
19024;SDS011;9645;51.448;6.260;2023-04-01T00:19:09;1.73;;;1.00;;
19024;SDS011;9645;51.448;6.260;2023-04-01T00:21:36;3.38;;;1.52;;
19024;SDS011;9645;51.448;6.260;2023-04-01T00:24:03;4.97;;;0.98;;
19024;SDS011;9645;51.448;6.260;2023-04-01T00:26:30;2.47;;;1.27;;
19024;SDS011;9645;51.448;6.260;2023-04-01T00:28:58;7.82;;;1.35;;
19024;SDS011;9645;51.448;6.260;2023-04-01T00:31:25;8.30;;;1.20;;
19024;SDS011;9645;51.448;6.260;2023-04-01T00:33:54;3.60;;;1.48;;
19024;SDS011;9645;51.448;6.260;2023-04-01T00:36:21;1.30;;;1.20;;
19024;SDS011;9645;51.448;6.260;2023-04-01T00:38:48;3.80;;;1.42;;
19024;SDS011;9645;51.448;6.260;2023-04-01T00:41:17;2.20;;;1.00;;
19024;SDS011;9645;51.448;6.260;2023-04-01T00:43:47;2.65;;;1.13;;
19024;SDS011;9645;51.448;6.260;2023-04-01T00:46:15;7.20;;;1.77;;
19024;SDS011;9645;51.448;6.260;2023-04-01T00:48:43;4.40;;;1.38;;
19024;SDS011;9645;51.448;6.260;2023-04-01T00:51:15;7.93;;;1.00;;
19024;SDS011;9645;51.448;6.260;2023-04-01T00:53:45;3.22;;;0.90;;
19024;SDS011;9645;51.448;6.260;2023-04-01T00:56:14;1.20;;;0.80;;
19024;SDS011;9645;51.448;6.260;2023-04-01T00:58:44;0.88;;;0.80;;
19024;SDS011;9645;51.448;6.260;2023-04-01T01:01:14;2.90;;;1.13;;
19024;SDS011;9645;51.448;6.260;2023-04-01T01:03:41;2.25;;;1.20;;
19024;SDS011;9645;51.448;6.260;2023-04-01T01:06:16;2.33;;;1.02;;
19024;SDS011;9645;51.448;6.260;2023-04-01T01:09:03;5.95;;;1.00;;
19024;SDS011;9645;51.448;6.260;2023-04-01T01:11:39;0.93;;;0.77;;
19024;SDS011;9645;51.448;6.260;2023-04-01T01:14:11;2.53;;;0.90;;
19024;SDS011;9645;51.448;6.260;2023-04-01T01:16:50;4.68;;;1.25;;
19024;SDS011;9645;51.448;6.260;2023-04-01T01:19:32;0.90;;;0.90;;
19024;SDS011;9645;51.448;6.260;2023-04-01T01:22:20;2.67;;;0.88;;
19024;SDS011;9645;51.448;6.260;2023-04-01T01:25:05;2.97;;;0.88;;
19024;SDS011;9645;51.448;6.260;2023-04-01T01:27:42;1.00;;;0.80;;
19024;SDS011;9645;51.448;6.260;2023-04-01T01:30:22;1.25;;;0.77;;
19024;SDS011;9645;51.448;6.260;2023-04-01T01:33:04;3.70;;;1.10;;
19024;SDS011;9645;51.448;6.260;2023-04-01T01:35:41;1.90;;;0.50;;
19024;SDS011;9645;51.448;6.260;2023-04-01T01:38:13;2.25;;;0.70;;
19024;SDS011;9645;51.448;6.260;2023-04-01T01:40:42;1.15;;;0.70;;
19024;SDS011;9645;51.448;6.260;2023-04-01T01:43:14;2.78;;;0.75;;
19024;SDS011;9645;51.448;6.260;2023-04-01T01:45:46;1.40;;;0.52;;
19024;SDS011;9645;51.448;6.260;2023-04-01T01:48:16;3.90;;;0.40;;
19024;SDS011;9645;51.448;6.260;2023-04-01T01:50:46;1.77;;;0.57;;
19024;SDS011;9645;51.448;6.260;2023-04-01T01:53:16;0.40;;;0.40;;
19024;SDS011;9645;51.448;6.260;2023-04-01T01:55:43;0.50;;;0.50;;
19024;SDS011;9645;51.448;6.260;2023-04-01T01:58:13;2.05;;;0.45;;
19024;SDS011;9645;51.448;6.260;2023-04-01T02:00:44;4.32;;;0.60;;
19024;SDS011;9645;51.448;6.260;2023-04-01T02:03:15;2.67;;;0.90;;
19024;SDS011;9645;51.448;6.260;2023-04-01T02:05:47;3.90;;;0.50;;
19024;SDS011;9645;51.448;6.260;2023-04-01T02:08:17;0.63;;;0.63;;
19024;SDS011;9645;51.448;6.260;2023-04-01T02:10:52;1.83;;;0.50;;
19024;SDS011;9645;51.448;6.260;2023-04-01T02:13:24;0.70;;;0.55;;
19024;SDS011;9645;51.448;6.260;2023-04-01T02:15:56;1.98;;;0.47;;
19024;SDS011;9645;51.448;6.260;2023-04-01T02:18:29;1.48;;;0.50;;
19024;SDS011;9645;51.448;6.260;2023-04-01T02:21:01;1.88;;;0.60;;
19024;SDS011;9645;51.448;6.260;2023-04-01T02:23:30;2.30;;;0.60;;
19024;SDS011;9645;51.448;6.260;2023-04-01T02:26:00;1.05;;;0.70;;
19024;SDS011;9645;51.448;6.260;2023-04-01T02:28:28;1.10;;;0.50;;
19024;SDS011;9645;51.448;6.260;2023-04-01T02:30:57;1.85;;;0.80;;
19024;SDS011;9645;51.448;6.260;2023-04-01T02:33:27;1.38;;;0.90;;
19024;SDS011;9645;51.448;6.260;2023-04-01T02:35:55;1.95;;;1.20;;
19024;SDS011;9645;51.448;6.260;2023-04-01T02:38:24;4.43;;;1.00;;
19024;SDS011;9645;51.448;6.260;2023-04-01T02:40:55;1.10;;;0.95;;
19024;SDS011;9645;51.448;6.260;2023-04-01T02:43:23;0.98;;;0.90;;
19024;SDS011;9645;51.448;6.260;2023-04-01T02:45:50;1.80;;;1.25;;
19024;SDS011;9645;51.448;6.260;2023-04-01T02:48:17;1.58;;;1.48;;
19024;SDS011;9645;51.448;6.260;2023-04-01T02:50:44;1.70;;;1.10;;
19024;SDS011;9645;51.448;6.260;2023-04-01T02:53:11;1.23;;;1.13;;
19024;SDS011;9645;51.448;6.260;2023-04-01T02:55:40;1.00;;;1.00;;
19024;SDS011;9645;51.448;6.260;2023-04-01T02:58:07;1.70;;;1.27;;
19024;SDS011;9645;51.448;6.260;2023-04-01T03:00:34;1.35;;;1.25;;
19024;SDS011;9645;51.448;6.260;2023-04-01T03:03:01;1.20;;;1.10;;
19024;SDS011;9645;51.448;6.260;2023-04-01T03:05:28;1.48;;;1.33;;
19024;SDS011;9645;51.448;6.260;2023-04-01T03:07:55;1.40;;;1.30;;
19024;SDS011;9645;51.448;6.260;2023-04-01T03:10:22;3.45;;;1.77;;
19024;SDS011;9645;51.448;6.260;2023-04-01T03:12:51;6.25;;;2.10;;
19024;SDS011;9645;51.448;6.260;2023-04-01T03:15:18;7.70;;;2.22;;
19024;SDS011;9645;51.448;6.260;2023-04-01T03:17:45;4.25;;;2.10;;
19024;SDS011;9645;51.448;6.260;2023-04-01T03:20:13;6.97;;;2.38;;
19024;SDS011;9645;51.448;6.260;2023-04-01T03:22:40;2.80;;;1.73;;
19024;SDS011;9645;51.448;6.260;2023-04-01T03:25:08;3.55;;;2.05;;
19024;SDS011;9645;51.448;6.260;2023-04-01T03:27:36;2.85;;;1.83;;
19024;SDS011;9645;51.448;6.260;2023-04-01T03:30:05;4.05;;;2.20;;
19024;SDS011;9645;51.448;6.260;2023-04-01T03:32:32;2.67;;;1.90;;
19024;SDS011;9645;51.448;6.260;2023-04-01T03:34:59;2.38;;;1.70;;
19024;SDS011;9645;51.448;6.260;2023-04-01T03:37:26;2.85;;;2.10;;
19024;SDS011;9645;51.448;6.260;2023-04-01T03:39:53;4.95;;;2.53;;
19024;SDS011;9645;51.448;6.260;2023-04-01T03:42:20;4.68;;;2.45;;
19024;SDS011;9645;51.448;6.260;2023-04-01T03:44:47;3.30;;;1.90;;
19024;SDS011;9645;51.448;6.260;2023-04-01T03:47:16;4.50;;;2.30;;
19024;SDS011;9645;51.448;6.260;2023-04-01T03:49:43;4.57;;;1.85;;
19024;SDS011;9645;51.448;6.260;2023-04-01T03:52:10;5.80;;;2.30;;
19024;SDS011;9645;51.448;6.260;2023-04-01T03:54:37;3.05;;;2.17;;
19024;SDS011;9645;51.448;6.260;2023-04-01T03:57:04;4.13;;;2.53;;
19024;SDS011;9645;51.448;6.260;2023-04-01T03:59:31;3.10;;;2.30;;
19024;SDS011;9645;51.448;6.260;2023-04-01T04:01:59;4.38;;;2.50;;
19024;SDS011;9645;51.448;6.260;2023-04-01T04:04:27;3.70;;;2.85;;
19024;SDS011;9645;51.448;6.260;2023-04-01T04:06:55;3.92;;;2.88;;
19024;SDS011;9645;51.448;6.260;2023-04-01T04:09:22;3.72;;;2.60;;
19024;SDS011;9645;51.448;6.260;2023-04-01T04:11:49;5.45;;;3.10;;
19024;SDS011;9645;51.448;6.260;2023-04-01T04:14:16;4.82;;;3.30;;
19024;SDS011;9645;51.448;6.260;2023-04-01T04:16:43;5.65;;;3.75;;
19024;SDS011;9645;51.448;6.260;2023-04-01T04:19:10;5.88;;;3.55;;
19024;SDS011;9645;51.448;6.260;2023-04-01T04:21:38;9.45;;;3.90;;
19024;SDS011;9645;51.448;6.260;2023-04-01T04:24:05;9.35;;;4.80;;
19024;SDS011;9645;51.448;6.260;2023-04-01T04:26:32;7.65;;;4.20;;
19024;SDS011;9645;51.448;6.260;2023-04-01T04:29:00;11.55;;;5.03;;
19024;SDS011;9645;51.448;6.260;2023-04-01T04:31:28;7.68;;;4.70;;
19024;SDS011;9645;51.448;6.260;2023-04-01T04:33:55;8.93;;;5.05;;
19024;SDS011;9645;51.448;6.260;2023-04-01T04:36:22;6.78;;;4.47;;
19024;SDS011;9645;51.448;6.260;2023-04-01T04:38:50;6.32;;;4.47;;
19024;SDS011;9645;51.448;6.260;2023-04-01T04:41:18;9.02;;;4.95;;
19024;SDS011;9645;51.448;6.260;2023-04-01T04:43:50;9.85;;;5.35;;
19024;SDS011;9645;51.448;6.260;2023-04-01T04:46:18;7.90;;;4.57;;
19024;SDS011;9645;51.448;6.260;2023-04-01T04:48:46;6.93;;;4.45;;
19024;SDS011;9645;51.448;6.260;2023-04-01T04:51:14;7.15;;;4.32;;
19024;SDS011;9645;51.448;6.260;2023-04-01T04:53:41;5.90;;;4.10;;
19024;SDS011;9645;51.448;6.260;2023-04-01T04:56:10;7.43;;;4.10;;
19024;SDS011;9645;51.448;6.260;2023-04-01T04:58:37;7.75;;;5.22;;
19024;SDS011;9645;51.448;6.260;2023-04-01T05:01:07;7.72;;;4.72;;
19024;SDS011;9645;51.448;6.260;2023-04-01T05:03:35;9.13;;;5.13;;
19024;SDS011;9645;51.448;6.260;2023-04-01T05:06:03;16.08;;;5.20;;
19024;SDS011;9645;51.448;6.260;2023-04-01T05:08:31;8.30;;;4.85;;
19024;SDS011;9645;51.448;6.260;2023-04-01T05:10:59;10.68;;;5.45;;
19024;SDS011;9645;51.448;6.260;2023-04-01T05:13:28;9.20;;;5.63;;
19024;SDS011;9645;51.448;6.260;2023-04-01T05:15:55;6.55;;;4.40;;
19024;SDS011;9645;51.448;6.260;2023-04-01T05:18:22;12.60;;;6.72;;
19024;SDS011;9645;51.448;6.260;2023-04-01T05:20:49;11.25;;;5.15;;
19024;SDS011;9645;51.448;6.260;2023-04-01T05:23:17;8.75;;;5.07;;
19024;SDS011;9645;51.448;6.260;2023-04-01T05:25:46;12.27;;;5.93;;
19024;SDS011;9645;51.448;6.260;2023-04-01T05:28:13;10.05;;;6.10;;
19024;SDS011;9645;51.448;6.260;2023-04-01T05:30:42;9.55;;;5.70;;
19024;SDS011;9645;51.448;6.260;2023-04-01T05:33:10;10.73;;;6.60;;
19024;SDS011;9645;51.448;6.260;2023-04-01T05:35:38;12.40;;;5.97;;
19024;SDS011;9645;51.448;6.260;2023-04-01T05:38:06;9.70;;;5.55;;
19024;SDS011;9645;51.448;6.260;2023-04-01T05:40:33;12.38;;;6.38;;
19024;SDS011;9645;51.448;6.260;2023-04-01T05:43:00;10.32;;;6.00;;
19024;SDS011;9645;51.448;6.260;2023-04-01T05:45:27;10.60;;;5.93;;
19024;SDS011;9645;51.448;6.260;2023-04-01T05:47:55;9.63;;;5.80;;
19024;SDS011;9645;51.448;6.260;2023-04-01T05:50:22;13.93;;;6.70;;
19024;SDS011;9645;51.448;6.260;2023-04-01T05:52:50;11.15;;;6.07;;
19024;SDS011;9645;51.448;6.260;2023-04-01T05:55:17;10.50;;;5.80;;
19024;SDS011;9645;51.448;6.260;2023-04-01T05:57:45;11.30;;;5.97;;
19024;SDS011;9645;51.448;6.260;2023-04-01T06:00:13;10.80;;;6.38;;
19024;SDS011;9645;51.448;6.260;2023-04-01T06:02:41;13.95;;;6.97;;
19024;SDS011;9645;51.448;6.260;2023-04-01T06:05:13;14.65;;;5.50;;
19024;SDS011;9645;51.448;6.260;2023-04-01T06:07:43;14.32;;;5.68;;
19024;SDS011;9645;51.448;6.260;2023-04-01T06:10:11;10.45;;;6.30;;
19024;SDS011;9645;51.448;6.260;2023-04-01T06:12:49;10.10;;;6.45;;
19024;SDS011;9645;51.448;6.260;2023-04-01T06:15:32;9.13;;;5.18;;
19024;SDS011;9645;51.448;6.260;2023-04-01T06:18:12;12.15;;;6.50;;
19024;SDS011;9645;51.448;6.260;2023-04-01T06:20:58;9.75;;;5.70;;
19024;SDS011;9645;51.448;6.260;2023-04-01T06:23:35;10.45;;;6.00;;
19024;SDS011;9645;51.448;6.260;2023-04-01T06:26:16;10.57;;;5.90;;
19024;SDS011;9645;51.448;6.260;2023-04-01T06:28:57;7.45;;;4.78;;
19024;SDS011;9645;51.448;6.260;2023-04-01T06:31:46;10.63;;;5.97;;
19024;SDS011;9645;51.448;6.260;2023-04-01T06:34:35;11.05;;;6.38;;
19024;SDS011;9645;51.448;6.260;2023-04-01T06:37:24;10.63;;;5.65;;
19024;SDS011;9645;51.448;6.260;2023-04-01T06:40:09;9.77;;;5.50;;
19024;SDS011;9645;51.448;6.260;2023-04-01T06:42:50;9.60;;;5.13;;
19024;SDS011;9645;51.448;6.260;2023-04-01T06:45:28;9.65;;;5.40;;
19024;SDS011;9645;51.448;6.260;2023-04-01T06:48:09;10.00;;;5.55;;
19024;SDS011;9645;51.448;6.260;2023-04-01T06:50:48;11.13;;;6.50;;
19024;SDS011;9645;51.448;6.260;2023-04-01T06:53:23;11.23;;;6.10;;
19024;SDS011;9645;51.448;6.260;2023-04-01T06:55:56;12.25;;;6.68;;
19024;SDS011;9645;51.448;6.260;2023-04-01T06:58:27;7.38;;;4.65;;
19024;SDS011;9645;51.448;6.260;2023-04-01T07:01:00;13.90;;;6.85;;
19024;SDS011;9645;51.448;6.260;2023-04-01T07:03:30;7.85;;;4.70;;
19024;SDS011;9645;51.448;6.260;2023-04-01T07:06:01;8.77;;;4.53;;
19024;SDS011;9645;51.448;6.260;2023-04-01T07:08:33;7.88;;;4.65;;
19024;SDS011;9645;51.448;6.260;2023-04-01T07:11:04;6.53;;;3.58;;
19024;SDS011;9645;51.448;6.260;2023-04-01T07:13:33;8.60;;;4.88;;
19024;SDS011;9645;51.448;6.260;2023-04-01T07:16:08;9.48;;;4.68;;
19024;SDS011;9645;51.448;6.260;2023-04-01T07:18:42;7.20;;;4.40;;
19024;SDS011;9645;51.448;6.260;2023-04-01T07:21:16;14.10;;;4.88;;
19024;SDS011;9645;51.448;6.260;2023-04-01T07:23:52;11.70;;;4.78;;
19024;SDS011;9645;51.448;6.260;2023-04-01T07:26:23;9.57;;;5.35;;
19024;SDS011;9645;51.448;6.260;2023-04-01T07:28:52;7.57;;;4.35;;
19024;SDS011;9645;51.448;6.260;2023-04-01T07:31:23;10.52;;;5.05;;
19024;SDS011;9645;51.448;6.260;2023-04-01T07:34:01;7.25;;;4.05;;
19024;SDS011;9645;51.448;6.260;2023-04-01T07:36:36;5.93;;;4.07;;
19024;SDS011;9645;51.448;6.260;2023-04-01T07:39:12;7.65;;;4.22;;
19024;SDS011;9645;51.448;6.260;2023-04-01T07:41:50;6.60;;;3.50;;
19024;SDS011;9645;51.448;6.260;2023-04-01T07:44:22;8.27;;;3.60;;
19024;SDS011;9645;51.448;6.260;2023-04-01T07:47:14;6.95;;;4.15;;
19024;SDS011;9645;51.448;6.260;2023-04-01T07:49:52;7.65;;;3.65;;
19024;SDS011;9645;51.448;6.260;2023-04-01T07:52:30;8.45;;;4.40;;
19024;SDS011;9645;51.448;6.260;2023-04-01T07:55:03;7.88;;;4.47;;
19024;SDS011;9645;51.448;6.260;2023-04-01T07:57:36;11.95;;;5.22;;
19024;SDS011;9645;51.448;6.260;2023-04-01T08:00:10;12.07;;;4.55;;
19024;SDS011;9645;51.448;6.260;2023-04-01T08:02:49;7.60;;;4.72;;
19024;SDS011;9645;51.448;6.260;2023-04-01T08:05:29;7.40;;;4.28;;
19024;SDS011;9645;51.448;6.260;2023-04-01T08:08:03;8.50;;;4.68;;
19024;SDS011;9645;51.448;6.260;2023-04-01T08:10:41;10.80;;;4.40;;
19024;SDS011;9645;51.448;6.260;2023-04-01T08:13:14;8.20;;;4.60;;
19024;SDS011;9645;51.448;6.260;2023-04-01T08:15:52;8.68;;;4.90;;
19024;SDS011;9645;51.448;6.260;2023-04-01T08:18:27;9.98;;;5.15;;
19024;SDS011;9645;51.448;6.260;2023-04-01T08:21:07;11.60;;;5.68;;
19024;SDS011;9645;51.448;6.260;2023-04-01T08:23:41;12.20;;;5.95;;
19024;SDS011;9645;51.448;6.260;2023-04-01T08:26:23;12.65;;;5.95;;
19024;SDS011;9645;51.448;6.260;2023-04-01T08:28:59;12.43;;;6.20;;
19024;SDS011;9645;51.448;6.260;2023-04-01T08:31:31;25.83;;;7.25;;
19024;SDS011;9645;51.448;6.260;2023-04-01T08:34:14;11.60;;;5.78;;
19024;SDS011;9645;51.448;6.260;2023-04-01T08:36:45;12.45;;;6.82;;
19024;SDS011;9645;51.448;6.260;2023-04-01T08:39:20;18.05;;;7.15;;
19024;SDS011;9645;51.448;6.260;2023-04-01T08:42:04;13.65;;;6.60;;
19024;SDS011;9645;51.448;6.260;2023-04-01T08:47:42;11.43;;;6.35;;
19024;SDS011;9645;51.448;6.260;2023-04-01T08:50:33;14.07;;;7.00;;
19024;SDS011;9645;51.448;6.260;2023-04-01T08:53:11;15.13;;;7.20;;
19024;SDS011;9645;51.448;6.260;2023-04-01T08:55:47;17.83;;;7.65;;
19024;SDS011;9645;51.448;6.260;2023-04-01T08:58:42;19.45;;;9.38;;
19024;SDS011;9645;51.448;6.260;2023-04-01T09:01:25;14.90;;;7.93;;
19024;SDS011;9645;51.448;6.260;2023-04-01T09:04:14;22.88;;;9.63;;
19024;SDS011;9645;51.448;6.260;2023-04-01T09:06:52;33.83;;;13.70;;
19024;SDS011;9645;51.448;6.260;2023-04-01T09:09:40;28.73;;;11.80;;
19024;SDS011;9645;51.448;6.260;2023-04-01T09:15:40;19.08;;;8.60;;
19024;SDS011;9645;51.448;6.260;2023-04-01T09:21:33;21.08;;;8.80;;
19024;SDS011;9645;51.448;6.260;2023-04-01T09:24:33;21.52;;;10.20;;
19024;SDS011;9645;51.448;6.260;2023-04-01T09:27:10;21.40;;;10.68;;
19024;SDS011;9645;51.448;6.260;2023-04-01T09:32:50;23.85;;;10.38;;
19024;SDS011;9645;51.448;6.260;2023-04-01T09:35:39;17.27;;;9.10;;
19024;SDS011;9645;51.448;6.260;2023-04-01T09:38:18;23.88;;;11.00;;
19024;SDS011;9645;51.448;6.260;2023-04-01T09:40:50;23.45;;;11.05;;
19024;SDS011;9645;51.448;6.260;2023-04-01T09:43:25;20.73;;;9.73;;
19024;SDS011;9645;51.448;6.260;2023-04-01T09:45:58;23.25;;;10.82;;
19024;SDS011;9645;51.448;6.260;2023-04-01T09:51:46;21.63;;;10.85;;
19024;SDS011;9645;51.448;6.260;2023-04-01T09:54:24;21.13;;;10.25;;
19024;SDS011;9645;51.448;6.260;2023-04-01T09:57:14;23.10;;;11.00;;
19024;SDS011;9645;51.448;6.260;2023-04-01T10:00:22;26.85;;;9.75;;
19024;SDS011;9645;51.448;6.260;2023-04-01T10:03:23;20.45;;;10.73;;
19024;SDS011;9645;51.448;6.260;2023-04-01T10:06:27;27.15;;;11.45;;
19024;SDS011;9645;51.448;6.260;2023-04-01T10:15:45;23.23;;;11.05;;
19024;SDS011;9645;51.448;6.260;2023-04-01T10:22:12;28.10;;;10.40;;
19024;SDS011;9645;51.448;6.260;2023-04-01T10:28:08;21.25;;;9.82;;
19024;SDS011;9645;51.448;6.260;2023-04-01T10:34:19;26.23;;;10.15;;
19024;SDS011;9645;51.448;6.260;2023-04-01T10:37:06;20.50;;;10.10;;
19024;SDS011;9645;51.448;6.260;2023-04-01T10:42:55;24.70;;;11.77;;
19024;SDS011;9645;51.448;6.260;2023-04-01T10:54:58;22.20;;;10.13;;
19024;SDS011;9645;51.448;6.260;2023-04-01T10:57:54;19.95;;;9.05;;
19024;SDS011;9645;51.448;6.260;2023-04-01T11:00:57;21.88;;;10.98;;
19024;SDS011;9645;51.448;6.260;2023-04-01T11:06:54;19.38;;;8.07;;
19024;SDS011;9645;51.448;6.260;2023-04-01T11:16:13;17.90;;;7.63;;
19024;SDS011;9645;51.448;6.260;2023-04-01T11:25:27;13.18;;;6.75;;
19024;SDS011;9645;51.448;6.260;2023-04-01T11:28:16;13.85;;;7.47;;
19024;SDS011;9645;51.448;6.260;2023-04-01T11:31:22;12.00;;;7.25;;
19024;SDS011;9645;51.448;6.260;2023-04-01T11:34:02;11.23;;;6.95;;
19024;SDS011;9645;51.448;6.260;2023-04-01T11:36:41;15.88;;;8.50;;
19024;SDS011;9645;51.448;6.260;2023-04-01T11:39:20;15.85;;;6.60;;
19024;SDS011;9645;51.448;6.260;2023-04-01T11:41:56;16.98;;;6.93;;
19024;SDS011;9645;51.448;6.260;2023-04-01T11:44:31;15.30;;;7.70;;
19024;SDS011;9645;51.448;6.260;2023-04-01T11:47:13;17.80;;;7.95;;
19024;SDS011;9645;51.448;6.260;2023-04-01T11:49:50;17.17;;;7.47;;
19024;SDS011;9645;51.448;6.260;2023-04-01T11:52:35;13.88;;;7.82;;
19024;SDS011;9645;51.448;6.260;2023-04-01T11:55:19;15.73;;;7.72;;
19024;SDS011;9645;51.448;6.260;2023-04-01T11:58:02;13.77;;;7.40;;
19024;SDS011;9645;51.448;6.260;2023-04-01T12:00:54;16.10;;;7.93;;
19024;SDS011;9645;51.448;6.260;2023-04-01T12:06:48;17.60;;;8.48;;
19024;SDS011;9645;51.448;6.260;2023-04-01T12:09:24;21.20;;;9.82;;
19024;SDS011;9645;51.448;6.260;2023-04-01T12:12:03;13.95;;;7.15;;
19024;SDS011;9645;51.448;6.260;2023-04-01T12:14:47;18.23;;;7.30;;
19024;SDS011;9645;51.448;6.260;2023-04-01T12:17:24;15.32;;;8.00;;
19024;SDS011;9645;51.448;6.260;2023-04-01T12:19:56;18.65;;;8.35;;
19024;SDS011;9645;51.448;6.260;2023-04-01T12:22:32;16.92;;;8.25;;
19024;SDS011;9645;51.448;6.260;2023-04-01T12:25:15;17.65;;;8.32;;
19024;SDS011;9645;51.448;6.260;2023-04-01T12:28:06;17.33;;;7.63;;
19024;SDS011;9645;51.448;6.260;2023-04-01T12:30:59;15.23;;;7.95;;
19024;SDS011;9645;51.448;6.260;2023-04-01T12:36:57;14.85;;;7.45;;
19024;SDS011;9645;51.448;6.260;2023-04-01T12:39:41;17.23;;;7.80;;
19024;SDS011;9645;51.448;6.260;2023-04-01T12:42:17;13.35;;;6.65;;
19024;SDS011;9645;51.448;6.260;2023-04-01T12:45:08;14.43;;;7.10;;
19024;SDS011;9645;51.448;6.260;2023-04-01T12:47:57;18.58;;;8.25;;
19024;SDS011;9645;51.448;6.260;2023-04-01T12:51:12;23.35;;;7.68;;
19024;SDS011;9645;51.448;6.260;2023-04-01T12:57:21;11.13;;;5.95;;
19024;SDS011;9645;51.448;6.260;2023-04-01T13:00:03;12.30;;;6.53;;
19024;SDS011;9645;51.448;6.260;2023-04-01T13:02:40;14.65;;;7.82;;
19024;SDS011;9645;51.448;6.260;2023-04-01T13:05:24;14.05;;;7.50;;
19024;SDS011;9645;51.448;6.260;2023-04-01T13:08:07;16.08;;;7.60;;
19024;SDS011;9645;51.448;6.260;2023-04-01T13:10:54;14.18;;;7.28;;
19024;SDS011;9645;51.448;6.260;2023-04-01T13:13:34;12.45;;;7.10;;
19024;SDS011;9645;51.448;6.260;2023-04-01T13:16:25;12.57;;;6.65;;
19024;SDS011;9645;51.448;6.260;2023-04-01T13:18:56;14.40;;;7.60;;
19024;SDS011;9645;51.448;6.260;2023-04-01T13:21:39;11.60;;;6.30;;
19024;SDS011;9645;51.448;6.260;2023-04-01T13:24:21;11.20;;;5.93;;
19024;SDS011;9645;51.448;6.260;2023-04-01T13:27:01;10.38;;;5.63;;
19024;SDS011;9645;51.448;6.260;2023-04-01T13:29:34;11.25;;;6.43;;
19024;SDS011;9645;51.448;6.260;2023-04-01T13:32:14;13.85;;;6.90;;
19024;SDS011;9645;51.448;6.260;2023-04-01T13:34:54;9.98;;;6.15;;
19024;SDS011;9645;51.448;6.260;2023-04-01T13:37:39;9.65;;;5.80;;
19024;SDS011;9645;51.448;6.260;2023-04-01T13:40:26;11.23;;;5.88;;
19024;SDS011;9645;51.448;6.260;2023-04-01T13:43:04;11.68;;;5.25;;
19024;SDS011;9645;51.448;6.260;2023-04-01T13:45:41;10.98;;;5.47;;
19024;SDS011;9645;51.448;6.260;2023-04-01T13:51:31;9.65;;;5.70;;
19024;SDS011;9645;51.448;6.260;2023-04-01T13:54:30;9.00;;;5.55;;
19024;SDS011;9645;51.448;6.260;2023-04-01T13:57:23;7.90;;;5.25;;
19024;SDS011;9645;51.448;6.260;2023-04-01T14:00:12;10.02;;;5.75;;
19024;SDS011;9645;51.448;6.260;2023-04-01T14:03:11;10.88;;;6.10;;
19024;SDS011;9645;51.448;6.260;2023-04-01T14:05:54;9.45;;;5.22;;
19024;SDS011;9645;51.448;6.260;2023-04-01T14:08:35;10.32;;;6.32;;
19024;SDS011;9645;51.448;6.260;2023-04-01T14:11:11;8.15;;;4.82;;
19024;SDS011;9645;51.448;6.260;2023-04-01T14:13:46;8.82;;;5.38;;
19024;SDS011;9645;51.448;6.260;2023-04-01T14:16:45;9.57;;;4.70;;
19024;SDS011;9645;51.448;6.260;2023-04-01T14:19:31;8.75;;;5.20;;
19024;SDS011;9645;51.448;6.260;2023-04-01T14:22:19;7.13;;;4.77;;
19024;SDS011;9645;51.448;6.260;2023-04-01T14:24:56;8.70;;;5.25;;
19024;SDS011;9645;51.448;6.260;2023-04-01T14:27:48;8.80;;;5.38;;
19024;SDS011;9645;51.448;6.260;2023-04-01T14:30:29;8.13;;;5.20;;
19024;SDS011;9645;51.448;6.260;2023-04-01T14:33:13;9.60;;;5.18;;
19024;SDS011;9645;51.448;6.260;2023-04-01T14:35:53;12.20;;;6.50;;
19024;SDS011;9645;51.448;6.260;2023-04-01T14:38:35;9.95;;;5.47;;
19024;SDS011;9645;51.448;6.260;2023-04-01T14:41:17;9.90;;;5.00;;
19024;SDS011;9645;51.448;6.260;2023-04-01T14:44:04;9.80;;;5.30;;
19024;SDS011;9645;51.448;6.260;2023-04-01T14:49:41;6.68;;;4.00;;
19024;SDS011;9645;51.448;6.260;2023-04-01T14:52:13;7.20;;;3.83;;
19024;SDS011;9645;51.448;6.260;2023-04-01T14:54:44;6.38;;;4.28;;
19024;SDS011;9645;51.448;6.260;2023-04-01T14:57:14;4.95;;;3.63;;
19024;SDS011;9645;51.448;6.260;2023-04-01T14:59:49;5.50;;;3.78;;
19024;SDS011;9645;51.448;6.260;2023-04-01T15:02:28;6.47;;;4.03;;
19024;SDS011;9645;51.448;6.260;2023-04-01T15:05:10;6.70;;;4.15;;
19024;SDS011;9645;51.448;6.260;2023-04-01T15:07:59;9.35;;;4.10;;
19024;SDS011;9645;51.448;6.260;2023-04-01T15:10:43;8.35;;;5.10;;
19024;SDS011;9645;51.448;6.260;2023-04-01T15:13:40;5.63;;;4.10;;
19024;SDS011;9645;51.448;6.260;2023-04-01T15:16:21;6.85;;;4.40;;
19024;SDS011;9645;51.448;6.260;2023-04-01T15:18:56;7.30;;;4.80;;
19024;SDS011;9645;51.448;6.260;2023-04-01T15:24:42;11.40;;;5.68;;
19024;SDS011;9645;51.448;6.260;2023-04-01T15:27:24;12.55;;;5.95;;
19024;SDS011;9645;51.448;6.260;2023-04-01T15:30:07;16.25;;;7.60;;
19024;SDS011;9645;51.448;6.260;2023-04-01T15:32:55;12.07;;;6.82;;
19024;SDS011;9645;51.448;6.260;2023-04-01T15:35:39;9.93;;;6.65;;
19024;SDS011;9645;51.448;6.260;2023-04-01T15:38:18;13.75;;;7.72;;
19024;SDS011;9645;51.448;6.260;2023-04-01T15:40:58;12.35;;;6.47;;
19024;SDS011;9645;51.448;6.260;2023-04-01T15:43:37;14.18;;;7.65;;
19024;SDS011;9645;51.448;6.260;2023-04-01T15:49:26;13.55;;;7.53;;
19024;SDS011;9645;51.448;6.260;2023-04-01T15:52:06;13.13;;;7.60;;
19024;SDS011;9645;51.448;6.260;2023-04-01T15:54:54;13.50;;;7.38;;
19024;SDS011;9645;51.448;6.260;2023-04-01T15:57:43;15.73;;;7.20;;
19024;SDS011;9645;51.448;6.260;2023-04-01T16:00:22;11.75;;;6.72;;
19024;SDS011;9645;51.448;6.260;2023-04-01T16:03:14;11.13;;;6.88;;
19024;SDS011;9645;51.448;6.260;2023-04-01T16:06:01;15.25;;;7.55;;
19024;SDS011;9645;51.448;6.260;2023-04-01T16:08:47;14.45;;;7.35;;
19024;SDS011;9645;51.448;6.260;2023-04-01T16:11:37;16.63;;;7.50;;
19024;SDS011;9645;51.448;6.260;2023-04-01T16:14:28;11.10;;;6.40;;
19024;SDS011;9645;51.448;6.260;2023-04-01T16:17:08;15.15;;;7.68;;
19024;SDS011;9645;51.448;6.260;2023-04-01T16:19:53;13.98;;;7.20;;
19024;SDS011;9645;51.448;6.260;2023-04-01T16:22:28;15.50;;;7.78;;
19024;SDS011;9645;51.448;6.260;2023-04-01T16:25:07;14.98;;;8.27;;
19024;SDS011;9645;51.448;6.260;2023-04-01T16:27:46;13.88;;;7.53;;
19024;SDS011;9645;51.448;6.260;2023-04-01T16:33:12;13.68;;;7.40;;
19024;SDS011;9645;51.448;6.260;2023-04-01T16:35:49;14.18;;;7.68;;
19024;SDS011;9645;51.448;6.260;2023-04-01T16:38:24;14.00;;;8.13;;
19024;SDS011;9645;51.448;6.260;2023-04-01T16:41:04;14.23;;;8.73;;
19024;SDS011;9645;51.448;6.260;2023-04-01T16:43:44;17.38;;;7.78;;
19024;SDS011;9645;51.448;6.260;2023-04-01T16:52:00;16.20;;;7.80;;
19024;SDS011;9645;51.448;6.260;2023-04-01T16:54:41;13.63;;;7.90;;
19024;SDS011;9645;51.448;6.260;2023-04-01T16:57:24;10.80;;;7.10;;
19024;SDS011;9645;51.448;6.260;2023-04-01T16:59:55;11.77;;;7.55;;
19024;SDS011;9645;51.448;6.260;2023-04-01T17:02:31;16.90;;;8.00;;
19024;SDS011;9645;51.448;6.260;2023-04-01T17:05:03;16.58;;;8.32;;
19024;SDS011;9645;51.448;6.260;2023-04-01T17:07:44;21.10;;;11.30;;
19024;SDS011;9645;51.448;6.260;2023-04-01T17:10:24;25.83;;;10.55;;
19024;SDS011;9645;51.448;6.260;2023-04-01T17:13:08;20.23;;;8.30;;
19024;SDS011;9645;51.448;6.260;2023-04-01T17:15:46;17.92;;;10.32;;
19024;SDS011;9645;51.448;6.260;2023-04-01T17:18:26;13.50;;;7.93;;
19024;SDS011;9645;51.448;6.260;2023-04-01T17:21:02;15.40;;;8.70;;